Mechanicsville, Connecticut
Current Conditions -  °F | °C
As of 5:15 AM on Monday 26 Jan 2015 (Local Time) from KSFZ Reporting Station
Clear Clear  
Wind Chill:   Ceiling: Unl
Heat Index: 12°   Visibility: 10mi
Dew Point: -2°   Wind: 9mph
Humidity: 53%   Direction: 20°NNE
Pressure: 30.05"   Gusts: NA
Location:  41.9712°N, 71.8342°W
Report Text: KSFZ 261015Z 02008KT 10SM CLR M11/M19 A3005 RMK AO1
Loading
Personal Weather Stations






























Interactive Weather Map New forecast layout! Learn more

10-Day Weather Forecast

Advertisements
Track Severe Weather on mobile